Mansfield, WA (98830)

11:35 AM PDT on September 18, 2014 (GMT -0700)
RAWS DOUGLAS WA US | Change Station
CLOSE
Current Station
Personal Weather Station
Location: Waterville, WA
Elevation: 2529 ft
Nearby Weather Stations

Elev 2529 ft 47.62 °N, 119.90 °W | Updated 47 minutes ago

Mostly Cloudy
Mostly Cloudy
70 °F
Feels Like 70 °F
N
12
Wind Variable Wind from WNW
Gusts 20.0 mph

Today
High -- | Low -- °F
--% Chance of Precip.
Yesterday
High -- | Low -- °F
Precip. -- in
6:39 AM 7:04 PM
Waning Crescent, 25% visible
Pressure 29.68 in
Visibility 10.0 miles
Clouds Few 10000 ft
Scattered Clouds 12000 ft
Dew Point 46 °F
Humidity 42%
Rainfall 0.00 in
Snow Depth 0 in , 0 in , 0 in
UV 4 out of 12
Pollen 2.50 out of 12
Air Quality Not available.
Flu Activity Not available.
METAR KEPH 181753Z AUTO 22009G17KT 10SM FEW100 SCT120 26/08 A2969 RMK AO2 SLP048 T02560083 10267 20183 51012

More Conditions Fewer Conditions

Pressure 29.68 in
Visibility 10.0 miles
Clouds Few 10000 ft
Scattered Clouds 12000 ft
Dew Point 46 °F
Humidity 42%
Rainfall 0.00 in
Snow Depth 0 in , 0 in , 0 in
UV 4 out of 12
Pollen 2.50 out of 12
Air Quality Not available.
Flu Activity Not available.
METAR KEPH 181753Z AUTO 22009G17KT 10SM FEW100 SCT120 26/08 A2969 RMK AO2 SLP048 T02560083 10267 20183 51012

More Conditions Fewer Conditions

10-Day Weather Forecast

Almanac

Astronomy

Sep. 18, 2014 Rise Set
Actual Time 6:39 AM PDT 7:04 PM PDT
Civil Twilight 6:08 AM PDT 7:35 PM PDT
Nautical Twilight 5:32 AM PDT 8:11 PM PDT
Astronomical Twilight 4:54 AM PDT 8:49 PM PDT
Moon 1:19 AM PDT 4:14 PM PDT
Length of Visible Light 13h 26m
Length of Day
12h 24m
Tomorrow will be 3m 26s shorter.
Waning Crescent, 25% of the Moon is Illuminated
Today
Waning Crescent
Sep 24
New
Oct 1
First Quarter
Oct 8
Full
Oct 15
Last Quarter

Today's Extremes

State Highs State Lows

Community

WunderPhotos

Upload Photos

1,754,417 photos uploaded!

WunderBlogs® & News

Nearby

Snow Depth

Station Depth Elevation
Fish Lake 0 in 3371 ft
Skookum Creek 0 in 3920 ft
June Lake 0 in 3340 ft
Stevens Pass 0 in 4070 ft
Spirit Lake 0 in 3120 ft

Earthquake Activity

City Distance Mag. Time & Date
No recent earthquake activity has been reported nearby.
Minimum magnitude displayed is 2.5.

Coastal Water Temperatures

Place Temperature
No Stations Reporting

Nearby Weather Stations